Stormwatcher's Retreat Logo




                  Temp     Hi    Low   Out    Dew  Wind  Wind   Wind    Hi    Hi   Wind   Heat    THW   THSW                Rain  Solar   Solar Hi Solar   UV    UV    Hi     Heat    Cool    In     In    In     In     In   In Air          Wind  Wind    ISS   Arc.
  Date    Time     Out   Temp   Temp   Hum    Pt. Speed   Dir    Run Speed   Dir  Chill  Index  Index  Index   Bar    Rain  Rate   Rad.  Energy    Rad.  Index  Dose   UV     D-D     D-D    Temp   Hum    Dew   Heat    EMC Density     ET   Samp   Tx   Recept  Int.
------------------------------------------------------------------------------------------------------------------------------------------------------------------------------------------------------------------------------------------------------------------------
 4/19/24 12:10a   48.7   48.8   48.6    79   42.5   0.0   ENE   0.00   2.0   ENE   48.7   48.6   48.6   45.2  30.038  0.00  0.00     0     0.00      0     0.0  0.00   0.0   0.113   0.000   69.9    47   48.7   67.9   8.75  .0744    0.000   200    7    100.0   10 
 4/19/24 12:20a   48.9   48.9   48.6    79   42.7   0.0   ---   0.00   0.0   ---   48.9   48.8   48.8   45.4  30.038  0.00  0.00     0     0.00      0     0.0  0.00   0.0   0.112   0.000   69.8    47   48.7   67.9   8.75  .0744    0.000   200    7    100.0   10 
 4/19/24 12:30a   49.4   49.4   48.8    80   43.5   0.0   ---   0.00   0.0   ---   49.4   49.3   49.3   45.9  30.034  0.00  0.00     0     0.00      0     0.0  0.00   0.0   0.108   0.000   69.7    47   48.6   67.8   8.76  .0744    0.000   202    7    100.0   10 
 4/19/24 12:40a   48.7   49.4   48.7    79   42.5   1.0   ENE   0.17   3.0   ENE   48.7   48.6   48.6   45.2  30.030  0.00  0.00     0     0.00      0     0.0  0.00   0.0   0.113   0.000   69.7    47   48.6   67.8   8.76  .0744    0.000   202    7    100.0   10 
 4/19/24 12:50a   48.3   48.6   48.0    78   41.8   4.0    NE   0.67   8.0     E   46.9   48.1   46.7   43.2  30.026  0.00  0.00     0     0.00      0     0.0  0.00   0.0   0.116   0.000   69.6    47   48.5   67.7   8.76  .0744    0.000   202    7    100.0   10 
 4/19/24  1:00a   51.9   51.9   48.3    69   42.0   9.0   ENE   1.50  13.0   ENE   48.1   51.3   47.5   44.4  30.023  0.00  0.00     0     0.00      0     0.0  0.00   0.0   0.091   0.000   69.6    47   48.5   67.7   8.76  .0744    0.001   203    7    100.0   10 
 4/19/24  1:10a   52.5   52.5   51.9    63   40.3   6.0   ENE   1.00  13.0    NE   50.6   51.6   49.7   46.2  30.022  0.00  0.00     0     0.00      0     0.0  0.00   0.0   0.087   0.000   69.5    47   48.4   67.6   8.76  .0744    0.000   203    7    100.0   10 
 4/19/24  1:20a   52.7   52.7   52.3    61   39.6   7.0   ENE   1.17  14.0    NE   50.4   51.7   49.4   45.8  30.019  0.00  0.00     0     0.00      0     0.0  0.00   0.0   0.085   0.000   69.5    47   48.4   67.6   8.76  .0744    0.000   204    7    100.0   10 
 4/19/24  1:30a   54.6   54.6   52.7    55   38.7   9.0   ENE   1.50  16.0   ENE   51.3   53.1   49.8   46.5  30.020  0.00  0.00     0     0.00      0     0.0  0.00   0.0   0.072   0.000   69.4    47   48.3   67.6   8.76  .0744    0.000   204    7    100.0   10 
 4/19/24  1:40a   54.5   54.8   54.5    54   38.2   6.0   ENE   1.00  16.0   ENE   53.0   53.0   51.5   47.9  30.017  0.00  0.00     0     0.00      0     0.0  0.00   0.0   0.073   0.000   69.4    47   48.3   67.6   8.76  .0744    0.000   204    7    100.0   10 
 4/19/24  1:50a   54.6   54.6   54.4    51   36.8   7.0   ENE   1.17  14.0   ENE   52.7   52.9   51.0   47.3  30.016  0.00  0.00     0     0.00      0     0.0  0.00   0.0   0.072   0.000   69.3    47   48.2   67.5   8.76  .0744    0.000   204    7    100.0   10 
 4/19/24  2:00a   55.0   55.1   54.6    50   36.7   5.0   ENE   0.83   9.0    NE   54.1   53.2   52.3   48.6  30.011  0.00  0.00     0     0.00      0     0.0  0.00   0.0   0.069   0.000   69.2    47   48.1   67.4   8.77  .0744    0.003   202    7    100.0   10 
 4/19/24  2:10a   54.9   55.1   54.9    50   36.6   4.0   ENE   0.67  10.0   ENE   54.5   53.1   52.7   49.0  30.013  0.00  0.00     0     0.00      0     0.0  0.00   0.0   0.070   0.000   69.2    47   48.1   67.4   8.77  .0744    0.000   202    7    100.0   10 
 4/19/24  2:20a   53.3   54.9   53.3    55   37.5   5.0   ENE   0.83  10.0   NNE   52.1   51.9   50.7   47.1  30.010  0.00  0.00     0     0.00      0     0.0  0.00   0.0   0.081   0.000   69.2    47   48.1   67.4   8.77  .0744    0.000   202    7    100.0   10 
 4/19/24  2:30a   54.0   54.0   53.2    51   36.3   5.0   ENE   0.83  11.0    NE   52.9   52.4   51.3   47.6  30.012  0.00  0.00     0     0.00      0     0.0  0.00   0.0   0.076   0.000   69.1    47   48.0   67.4   8.77  .0744    0.000   204    7    100.0   10 
 4/19/24  2:40a   52.9   54.4   52.9    57   38.1   3.0   NNE   0.50   8.0     E   52.9   51.6   51.6   48.0  30.013  0.00  0.00     0     0.00      0     0.0  0.00   0.0   0.084   0.000   69.1    47   48.0   67.4   8.77  .0744    0.000   204    7    100.0   10 
 4/19/24  2:50a   50.8   52.8   50.8    61   37.8   3.0    NE   0.50   7.0   NNE   50.6   50.0   49.8   46.2  30.008  0.00  0.00     0     0.00      0     0.0  0.00   0.0   0.099   0.000   69.1    47   48.0   67.4   8.77  .0744    0.000   203    7    100.0   10 
 4/19/24  3:00a   49.6   50.7   49.6    64   37.9   3.0    NE   0.50  12.0     E   49.2   49.0   48.6   45.0  30.010  0.00  0.00     0     0.00      0     0.0  0.00   0.0   0.107   0.000   69.0    47   47.9   67.3   8.77  .0744    0.002   201    7    100.0   10 
 4/19/24  3:10a   51.1   51.2   49.7    62   38.5   4.0    NE   0.67  10.0    NE   50.1   50.3   49.3   45.7  30.007  0.00  0.00     0     0.00      0     0.0  0.00   0.0   0.097   0.000   68.9    47   47.8   67.2   8.77  .0745    0.000   204    7    100.0   10 
 4/19/24  3:20a   51.0   51.1   50.7    60   37.6   3.0   ENE   0.50   8.0   ENE   50.8   50.1   49.9   46.3  30.007  0.00  0.00     0     0.00      0     0.0  0.00   0.0   0.097   0.000   68.9    47   47.8   67.2   8.77  .0745    0.000   202    7    100.0   10 
 4/19/24  3:30a   51.5   51.5   51.0    58   37.2   4.0   ENE   0.67   9.0   ENE   50.6   50.5   49.6   46.0  30.009  0.00  0.00     0     0.00      0     0.0  0.00   0.0   0.094   0.000   68.9    47   47.8   67.2   8.77  .0745    0.000   203    7    100.0   10 
 4/19/24  3:40a   52.5   52.5   51.5    54   36.3   6.0   ENE   1.00  13.0   ENE   50.6   51.1   49.2   45.5  30.007  0.00  0.00     0     0.00      0     0.0  0.00   0.0   0.087   0.000   68.8    47   47.7   67.1   8.77  .0745    0.000   201    7    100.0   10 
 4/19/24  3:50a   53.0   53.0   52.6    52   35.8   5.0   ENE   0.83  10.0   ENE   51.7   51.5   50.2   46.5  30.007  0.00  0.00     0     0.00      0     0.0  0.00   0.0   0.083   0.000   68.8    47   47.7   67.1   8.77  .0745    0.000   203    7    100.0   10 
 4/19/24  4:00a   52.4   53.1   52.0    54   36.2   6.0   ENE   1.00  13.0    NE   50.5   51.1   49.2   45.5  30.009  0.00  0.00     0     0.00      0     0.0  0.00   0.0   0.087   0.000   68.7    47   47.6   67.0   8.78  .0745    0.002   204    7    100.0   10 
 4/19/24  4:10a   51.9   52.7   51.9    60   38.4   4.0   ENE   0.67  11.0    NE   51.1   50.9   50.1   46.5  30.013  0.00  0.00     0     0.00      0     0.0  0.00   0.0   0.091   0.000   68.7    47   47.6   67.0   8.78  .0745    0.000   203    7    100.0   10 
 4/19/24  4:20a   52.4   52.4   51.6    53   35.8   6.0   ENE   1.00  13.0   ENE   50.5   51.0   49.1   45.4  30.008  0.00  0.00     0     0.00      0     0.0  0.00   0.0   0.087   0.000   68.6    47   47.6   66.9   8.78  .0745    0.000   205    7    100.0   10 
 4/19/24  4:30a   53.1   53.1   52.5    51   35.4   9.0   ENE   1.50  17.0     E   49.5   51.5   47.9   44.5  30.008  0.00  0.00     0     0.00      0     0.0  0.00   0.0   0.083   0.000   68.6    47   47.6   66.9   8.78  .0745    0.000   203    7    100.0   10 
 4/19/24  4:40a   52.9   53.0   52.9    51   35.2   9.0   ENE   1.50  19.0   ENE   49.3   51.4   47.8   44.4  30.009  0.00  0.00     0     0.00      0     0.0  0.00   0.0   0.084   0.000   68.5    47   47.5   66.8   8.78  .0745    0.000   201    7    100.0   10 
 4/19/24  4:50a   52.8   53.1   52.8    51   35.2   9.0   ENE   1.50  22.0    NE   49.2   51.3   47.7   44.3  30.009  0.00  0.00     0     0.00      0     0.0  0.00   0.0   0.085   0.000   68.5    47   47.5   66.8   8.78  .0745    0.000   203    7    100.0   10 
 4/19/24  5:00a   52.6   52.8   52.6    52   35.5   9.0   ENE   1.50  17.0   ENE   48.9   51.1   47.4   44.0  30.009  0.00  0.00     0     0.00      0     0.0  0.00   0.0   0.086   0.000   68.4    47   47.4   66.8   8.78  .0745    0.003   205    7    100.0   10 
 4/19/24  5:10a   52.3   52.5   52.3    51   34.7  10.0   ENE   1.67  20.0    NE   48.0   50.8   46.5   43.2  30.004  0.00  0.00     0     0.00      0     0.0  0.00   0.0   0.088   0.000   68.4    47   47.4   66.8   8.78  .0745    0.000   202    7    100.0   10 
 4/19/24  5:20a   52.0   52.3   51.9    52   34.9   9.0   ENE   1.50  17.0    NE   48.2   50.6   46.8   43.3  30.006  0.00  0.00     0     0.00      0     0.0  0.00   0.0   0.090   0.000   68.5    47   47.5   66.8   8.78  .0745    0.000   203    7    100.0   10 
 4/19/24  5:30a   51.9   52.0   51.8    52   34.8  10.0   ENE   1.67  20.0    NE   47.5   50.5   46.1   42.8  30.006  0.00  0.00     0     0.00      0     0.0  0.00   0.0   0.091   0.000   68.6    47   47.6   66.9   8.78  .0745    0.000   203    7    100.0   10 
 4/19/24  5:40a   51.9   51.9   51.8    51   34.3  10.0   ENE   1.67  21.0   NNE   47.5   50.5   46.1   42.8  30.008  0.00  0.00     0     0.00      0     0.0  0.00   0.0   0.091   0.000   68.7    47   47.6   67.0   8.78  .0745    0.000   205    7    100.0   10 
 4/19/24  5:50a   52.1   52.2   51.9    50   34.0  10.0   ENE   1.67  21.0    NE   47.7   50.6   46.2   42.9  30.008  0.00  0.00     0     0.00      0     0.0  0.00   0.0   0.090   0.000   68.9    47   47.8   67.2   8.77  .0745    0.000   203    7    100.0   10 
 4/19/24  6:00a   51.6   52.2   51.6    51   34.0   9.0   ENE   1.50  17.0     E   47.8   50.2   46.4   42.9  30.013  0.00  0.00     0     0.00      0     0.0  0.00   0.0   0.093   0.000   69.1    47   48.0   67.4   8.77  .0744    0.004   201    7    100.0   10 
 4/19/24  6:10a   51.4   51.6   51.4    51   33.9   8.0   ENE   1.33  15.0   ENE   48.2   50.1   46.9   43.3  30.015  0.00  0.00     0     0.00      0     0.0  0.00   0.0   0.094   0.000   69.2    47   48.1   67.4   8.77  .0744    0.000   201    7    100.0   10 
 4/19/24  6:20a   51.5   51.6   51.4    51   34.0   8.0   ENE   1.33  14.0    NE   48.3   50.2   47.0   43.4  30.019  0.00  0.00     0     0.00      0     0.0  0.00   0.0   0.094   0.000   69.4    47   48.3   67.6   8.76  .0744    0.000   205    7    100.0   10 
 4/19/24  6:30a   51.1   51.5   51.1    51   33.6   6.0   ENE   1.00  10.0   ENE   49.0   49.8   47.7   44.0  30.023  0.00  0.00     6     0.09      9     0.0  0.00   0.0   0.097   0.000   69.5    46   47.8   67.6   8.65  .0744    0.000   204    7    100.0   10 
 4/19/24  6:40a   51.2   51.2   51.0    50   33.2   7.0   ENE   1.17  13.0   ENE   48.6   49.9   47.3   43.7  30.019  0.00  0.00    11     0.16     12     0.0  0.00   0.0   0.096   0.000   69.7    46   48.0   67.7   8.65  .0744    0.000   202    7    100.0   10 
 4/19/24  6:50a   50.8   51.3   50.8    52   33.8   7.0   ENE   1.17  13.0    NE   48.2   49.6   47.0   43.5  30.020  0.00  0.00    16     0.23     18     0.0  0.00   0.0   0.099   0.000   69.9    46   48.2   67.8   8.65  .0743    0.000   201    7    100.0   10 
 4/19/24  7:00a   50.5   50.8   50.5    53   34.0   7.0   ENE   1.17  13.0     E   47.8   49.4   46.7   43.3  30.019  0.00  0.00    19     0.27     21     0.0  0.00   0.0   0.101   0.000   70.1    46   48.4   68.0   8.65  .0743    0.003   202    7    100.0   10 
 4/19/24  7:10a   50.6   50.6   50.3    52   33.6   9.0   ENE   1.50  14.0     E   46.6   49.4   45.4   42.4  30.020  0.00  0.00    23     0.33     25     0.0  0.00   0.0   0.100   0.000   70.2    46   48.4   68.2   8.65  .0743    0.000   201    7    100.0   10 
 4/19/24  7:20a   50.7   50.8   50.5    52   33.7   6.0   ENE   1.00  15.0   ENE   48.5   49.5   47.3   44.1  30.023  0.00  0.00    26     0.37     26     0.0  0.00   0.0   0.099   0.000   70.4    46   48.6   68.4   8.64  .0743    0.000   203    7    100.0   10 
 4/19/24  7:30a   51.1   51.1   50.7    51   33.6   7.0   ENE   1.17  13.0    NE   48.5   49.8   47.2   44.0  30.022  0.00  0.00    29     0.42     30     0.0  0.00   0.0   0.097   0.000   70.5    46   48.7   68.6   8.64  .0742    0.000   202    7    100.0   10 
 4/19/24  7:40a   51.7   51.7   51.2    50   33.6   8.0   ENE   1.33  17.0   ENE   48.5   50.3   47.1   44.2  30.022  0.00  0.00    31     0.44     32     0.0  0.00   0.0   0.092   0.000   70.5    46   48.7   68.6   8.64  .0742    0.000   203    7    100.0   10 
 4/19/24  7:50a   52.2   52.2   51.7    49   33.6   9.0   ENE   1.50  15.0    NE   48.4   50.6   46.8   44.1  30.020  0.00  0.00    37     0.53     67     0.0  0.00   0.0   0.089   0.000   70.4    46   48.6   68.4   8.64  .0743    0.000   202    7    100.0   10 
 4/19/24  8:00a   53.1   53.1   52.2    48   33.9   9.0   ENE   1.50  20.0   ENE   49.5   51.4   47.8   53.6  30.018  0.00  0.00   221     3.17    283     0.0  0.00   0.0   0.083   0.000   70.4    47   49.2   68.5   8.75  .0742    0.004   203    7    100.0   10 
 4/19/24  8:10a   54.3   54.3   53.2    46   33.9  10.0    NE   1.67  18.0    NE   50.3   52.3   48.3   56.6  30.020  0.00  0.00   301     4.31    315     0.2  0.01   0.5   0.074   0.000   70.3    46   48.5   68.3   8.64  .0743    0.000   202    7    100.0   10 
 4/19/24  8:20a   55.2   55.2   54.3    45   34.2   9.0   ENE   1.50  17.0    NE   52.0   53.1   49.9   59.3  30.020  0.00  0.00   334     4.79    348     0.5  0.04   0.6   0.068   0.000   70.2    46   48.4   68.2   8.65  .0743    0.000   204    7    100.0   10 
 4/19/24  8:30a   55.9   55.9   55.2    44   34.3   8.0   ENE   1.33  15.0    NE   53.6   53.7   51.4   61.9  30.020  0.00  0.00   369     5.29    383     0.7  0.05   0.7   0.063   0.000   70.1    46   48.4   68.0   8.65  .0743    0.000   203    7    100.0   10 
 4/19/24  8:40a   56.5   56.5   55.9    43   34.3   8.0   ENE   1.33  17.0    NE   54.3   54.2   52.0   63.2  30.018  0.00  0.00   401     5.75    415     0.8  0.06   0.8   0.059   0.000   70.1    46   48.4   68.0   8.65  .0743    0.000   202    7    100.0   10 
 4/19/24  8:50a   57.3   57.3   56.5    43   35.0   8.0   ENE   1.33  14.0    NE   55.3   55.0   53.0   64.7  30.016  0.00  0.00   433     6.21    448     0.9  0.06   1.0   0.053   0.000   70.0    46   48.3   67.9   8.65  .0743    0.000   204    7    100.0   10 
 4/19/24  9:00a   57.8   57.8   57.2    43   35.4   7.0    NE   1.17  14.0   NNE   56.6   55.4   54.2   66.6  30.016  0.00  0.00   465     6.67    478     1.1  0.08   1.1   0.050   0.000   70.0    46   48.3   67.9   8.65  .0743    0.011   202    7    100.0   10 
 4/19/24  9:10a   58.4   58.5   57.8    42   35.4   7.0    NE   1.17  16.0    NE   57.3   55.9   54.8   67.4  30.015  0.00  0.00   495     7.10    508     1.2  0.09   1.3   0.046   0.000   70.0    46   48.3   67.9   8.65  .0743    0.000   204    7    100.0   10 
 4/19/24  9:20a   59.2   59.2   58.5    42   36.1   5.0   ENE   0.83  12.0    NE   59.0   56.7   56.5   69.6  30.016  0.00  0.00   526     7.54    541     1.4  0.10   1.5   0.040   0.000   69.9    46   48.2   67.8   8.65  .0743    0.000   204    7    100.0   10 
 4/19/24  9:30a   60.1   60.1   59.3    41   36.3   4.0    NE   0.67  10.0    NE   60.1   57.5   57.5   70.8  30.017  0.00  0.00   556     7.97    568     1.6  0.11   1.7   0.034   0.000   70.0    46   48.3   67.9   8.65  .0743    0.000   203    7    100.0   10 
 4/19/24  9:40a   60.8   60.8   60.1    41   36.9   4.0    NE   0.67  10.0    NE   60.8   58.2   58.2   71.5  30.018  0.00  0.00   584     8.37    596     1.8  0.13   1.9   0.029   0.000   70.0    46   48.3   67.9   8.65  .0743    0.000   203    7    100.0   10 
 4/19/24  9:50a   61.5   61.5   60.8    41   37.6   3.0    NE   0.50  11.0   NNE   61.5   58.9   58.9   72.2  30.020  0.00  0.00   611     8.76    624     2.0  0.14   2.1   0.024   0.000   70.0    46   48.3   67.9   8.65  .0743    0.000   200    7    100.0   10 
 4/19/24 10:00a   62.2   62.2   61.5    40   37.6   2.0   ENE   0.33   6.0   ENE   62.2   59.5   59.5   72.8  30.018  0.00  0.00   638     9.15    652     2.3  0.16   2.4   0.019   0.000   70.0    46   48.3   67.9   8.65  .0743    0.014   200    7    100.0   10 
 4/19/24 10:10a   61.6   62.3   61.5    40   37.0   3.0    NE   0.50   8.0   NNE   61.6   58.9   58.9   72.3  30.018  0.00  0.00   666     9.55    675     2.6  0.19   2.7   0.024   0.000   70.0    46   48.3   67.9   8.65  .0743    0.000   205    7    100.0   10 
 4/19/24 10:20a   60.7   61.6   60.7    42   37.5   2.0   ENE   0.33   7.0   NNE   60.7   58.2   58.2   71.5  30.016  0.00  0.00   690     9.89    700     2.8  0.20   2.9   0.030   0.000   70.0    46   48.3   67.9   8.65  .0743    0.000   204    7    100.0   10 
 4/19/24 10:30a   59.8   60.7   59.8    44   37.8   3.0     N   0.50   7.0   NNE   59.8   57.4   57.4   70.6  30.017  0.00  0.00   711    10.19    722     3.0  0.21   3.1   0.036   0.000   70.0    46   48.3   67.9   8.65  .0743    0.000   204    7    100.0   10 
 4/19/24 10:40a   58.5   59.7   58.5    46   37.8   1.0   WNW   0.17   3.0   WNW   58.5   56.3   56.3   69.3  30.017  0.00  0.00   731    10.48    740     3.2  0.23   3.4   0.045   0.000   70.1    46   48.4   68.0   8.65  .0743    0.000   204    7    100.0   10 
 4/19/24 10:50a   58.8   58.9   58.4    46   38.1   2.0    NW   0.33   4.0     N   58.8   56.6   56.6   69.6  30.015  0.00  0.00   753    10.79    765     3.5  0.25   3.6   0.043   0.000   70.1    46   48.4   68.0   8.65  .0743    0.000   203    7    100.0   10 
 4/19/24 11:00a   59.5   59.5   58.8    47   39.2   2.0     N   0.33   4.0     N   59.5   57.3   57.3   70.3  30.017  0.00  0.00   774    11.10    782     3.7  0.26   3.8   0.038   0.000   70.1    46   48.4   68.0   8.65  .0743    0.016   203    7    100.0   10 
 4/19/24 11:10a   56.6   59.5   56.6    60   42.9   3.0    SW   0.50   5.0   SSW   56.6   55.3   55.3   68.3  30.018  0.00  0.00   791    11.34    798     3.9  0.28   4.0   0.058   0.000   70.2    46   48.4   68.2   8.65  .0743    0.000   203    7    100.0   10 
 4/19/24 11:20a   54.1   56.5   54.1    65   42.6   2.0     S   0.33   4.0     S   54.1   53.1   53.1   66.0  30.021  0.00  0.00   807    11.57    816     4.1  0.29   4.1   0.076   0.000   70.3    46   48.5   68.3   8.64  .0743    0.000   203    7    100.0   10 
 4/19/24 11:30a   53.8   54.1   53.7    70   44.2   2.0     S   0.33   5.0   SSE   53.8   53.1   53.1   66.0  30.022  0.00  0.00   823    11.80    828     4.2  0.30   4.3   0.078   0.000   70.3    46   48.5   68.3   8.64  .0743    0.000   202    7    100.0   10 
 4/19/24 11:40a   53.9   54.0   53.7    72   45.1   2.0     S   0.33   4.0   SSE   53.9   53.3   53.3   66.2  30.020  0.00  0.00   837    12.00    846     4.4  0.31   4.5   0.077   0.000   70.4    46   48.6   68.4   8.64  .0743    0.000   199    7    100.0   10 
 4/19/24 11:50a   53.5   54.0   53.5    74   45.4   3.0   SSW   0.50   5.0   SSE   53.5   53.0   53.0   65.9  30.020  0.00  0.00   851    12.20    854     4.5  0.32   4.6   0.080   0.000   70.5    46   48.7   68.6   8.64  .0742    0.000   203    7    100.0   10 
 4/19/24 12:00p   54.0   54.0   53.4    75   46.3   2.0   SSW   0.33   5.0    SW   54.0   53.5   53.5   66.3  30.018  0.00  0.00   862    12.36    867     4.7  0.34   4.8   0.076   0.000   70.5    46   48.7   68.6   8.64  .0742    0.017   204    7    100.0   10 
 4/19/24 12:10p   53.2   54.2   53.2    76   45.8   3.0   WSW   0.50   5.0   WSW   53.2   52.7   52.7   65.4  30.017  0.00  0.00   871    12.49    874     4.8  0.34   4.9   0.082   0.000   70.6    46   48.8   68.7   8.64  .0742    0.000   203    7    100.0   10 
 4/19/24 12:20p   53.3   53.4   53.1    77   46.3   3.0   WSW   0.50   4.0    SW   53.3   52.9   52.9   65.6  30.016  0.00  0.00   878    12.59    882     5.0  0.36   5.0   0.081   0.000   70.7    46   48.9   68.8   8.64  .0742    0.000   203    7    100.0   10 
 4/19/24 12:30p   55.7   55.7   53.3    71   46.4   5.0     N   0.83  10.0     N   54.9   54.9   54.1   66.7  30.013  0.00  0.00   884    12.67    888     5.1  0.36   5.1   0.065   0.000   70.8    46   49.0   68.9   8.63  .0742    0.000   203    7    100.0   10 
 4/19/24 12:40p   57.5   57.6   55.7    63   45.0   6.0     N   1.00  12.0     N   56.6   56.4   55.5   68.0  30.013  0.00  0.00   888    12.73    891     5.1  0.36   5.1   0.052   0.000   70.9    46   49.1   69.1   8.63  .0742    0.000   205    7    100.0   10 
 4/19/24 12:50p   58.9   59.0   57.5    60   45.0   6.0    NE   1.00  10.0     N   58.3   57.6   57.0   69.5  30.012  0.00  0.00   895    12.83    898     5.2  0.37   5.2   0.042   0.000   71.0    46   49.2   69.2   8.63  .0741    0.000   204    7    100.0   10 
 4/19/24  1:00p   59.0   59.0   58.6    60   45.1   5.0   NNE   0.83  11.0     N   58.8   57.7   57.5   70.0  30.012  0.00  0.00   895    12.83    896     5.2  0.37   5.3   0.042   0.000   71.0    46   49.2   69.2   8.63  .0741    0.018   204    7    100.0   10 
 4/19/24  1:10p   58.3   59.0   58.3    60   44.5   6.0     N   1.00  11.0   NNE   57.6   57.0   56.3   68.7  30.013  0.00  0.00   897    12.86    902     5.3  0.38   5.3   0.047   0.000   71.1    46   49.3   69.3   8.63  .0741    0.000   203    7    100.0   10 
 4/19/24  1:20p   58.9   58.9   58.2    59   44.6   6.0     N   1.00  12.0     N   58.3   57.5   56.9   69.3  30.017  0.00  0.00   895    12.83    896     5.3  0.38   5.3   0.042   0.000   71.2    46   49.4   69.5   8.63  .0741    0.000   203    7    100.0   10 
 4/19/24  1:30p   59.7   59.7   58.7    61   46.2   5.0    NE   0.83  12.0     N   59.6   58.5   58.4   70.9  30.016  0.00  0.00   893    12.80    896     5.3  0.38   5.3   0.037   0.000   71.3    47   50.0   69.8   8.75  .0741    0.000   201    7    100.0   10 
 4/19/24  1:40p   58.5   59.9   58.5    58   43.8   7.0     N   1.17  12.0     N   57.4   57.1   56.0   68.1  30.018  0.00  0.00   889    12.74    891     5.2  0.37   5.3   0.045   0.000   71.3    47   50.0   69.8   8.75  .0741    0.000   203    7    100.0   10 
 4/19/24  1:50p   59.6   59.6   58.3    56   43.9   5.0   NNE   0.83  10.0     N   59.5   58.1   58.0   70.4  30.019  0.00  0.00   883    12.66    886     5.2  0.37   5.2   0.038   0.000   71.4    46   49.5   69.8   8.62  .0741    0.000   204    7    100.0   10 
 4/19/24  2:00p   60.1   60.1   59.4    52   42.4   7.0   NNE   1.17  12.0   NNE   59.3   58.3   57.5   69.6  30.018  0.00  0.00   876    12.56    879     5.1  0.36   5.2   0.034   0.000   71.5    46   49.6   69.9   8.62  .0741    0.020   205    7    100.0   10 
 4/19/24  2:10p   60.7   60.8   60.1    50   41.9   6.0   NNE   1.00  11.0   NNE   60.4   58.7   58.4   70.8  30.020  0.00  0.00   868    12.44    872     5.0  0.36   5.1   0.030   0.000   71.6    47   50.3   70.2   8.75  .0740    0.000   204    7    100.0   10 
 4/19/24  2:20p   61.7   61.7   60.7    48   41.8   6.0   NNE   1.00  11.0   NNE   61.6   59.6   59.5   71.9  30.019  0.00  0.00   859    12.31    863     4.9  0.35   4.9   0.023   0.000   71.7    47   50.4   70.3   8.75  .0740    0.000   204    7    100.0   10 
 4/19/24  2:30p   62.0   62.4   61.8    45   40.4   6.0   NNE   1.00  11.0     N   62.0   59.7   59.7   72.1  30.018  0.00  0.00   848    12.16    853     4.8  0.34   4.9   0.021   0.000   71.8    47   50.5   70.5   8.75  .0740    0.000   202    7    100.0   10 
 4/19/24  2:40p   61.6   62.6   61.6    45   40.0   6.0     N   1.00  11.0   NNE   61.5   59.3   59.2   71.7  30.015  0.00  0.00   835    11.97    842     4.7  0.34   4.7   0.024   0.000   71.9    47   50.6   70.6   8.75  .0740    0.000   204    7    100.0   10 
 4/19/24  2:50p   62.2   62.2   61.4    44   40.0   6.0     N   1.00  10.0     N   62.2   59.8   59.8   72.3  30.016  0.00  0.00   820    11.75    826     4.5  0.32   4.6   0.019   0.000   72.0    46   50.1   70.7   8.61  .0740    0.000   203    7    100.0   10 
 4/19/24  3:00p   62.7   62.7   62.1    45   41.0   6.0     N   1.00  10.0     N   62.7   60.4   60.4   72.8  30.018  0.00  0.00   791    11.34    809     4.3  0.31   4.4   0.016   0.000   72.1    46   50.2   70.8   8.61  .0740    0.020   204    7    100.0   10 
 4/19/24  3:10p   62.8   62.9   62.7    44   40.5   6.0     N   1.00  10.0   NNE   62.8   60.4   60.4   72.9  30.014  0.00  0.00   781    11.20    789     4.1  0.29   4.2   0.015   0.000   72.2    46   50.3   71.0   8.61  .0739    0.000   202    7    100.0   10 
 4/19/24  3:20p   62.5   62.8   62.3    45   40.9   6.0     N   1.00  10.0   NNE   62.5   60.2   60.2   72.3  30.012  0.00  0.00   742    10.64    752     3.9  0.28   4.0   0.017   0.000   72.2    46   50.3   71.0   8.61  .0739    0.000   203    7    100.0   10 
 4/19/24  3:30p   62.7   62.7   62.4    46   41.6   5.0     N   0.83  10.0   NNW   62.7   60.5   60.5   72.7  30.011  0.00  0.00   721    10.34    738     3.7  0.26   3.8   0.016   0.000   72.3    46   50.4   71.1   8.60  .0739    0.000   203    7    100.0   10 
 4/19/24  3:40p   62.3   63.1   62.3    47   41.8   6.0     N   1.00  11.0     N   62.3   60.2   60.2   72.5  30.008  0.00  0.00   704    10.09    733     3.5  0.25   3.6   0.019   0.000   72.4    46   50.4   71.3   8.60  .0739    0.000   203    7    100.0   10 
 4/19/24  3:50p   62.9   62.9   62.2    46   41.8   6.0   NNE   1.00  10.0    NE   62.9   60.7   60.7   73.4  30.005  0.00  0.00   697     9.99    717     3.3  0.24   3.4   0.015   0.000   72.5    47   51.1   71.5   8.75  .0738    0.000   200    7    100.0   10 
 4/19/24  4:00p   62.6   63.0   62.6    48   42.6   5.0     N   0.83   9.0    NE   62.6   60.5   60.5   73.4  30.001  0.00  0.00   678     9.72    684     3.1  0.22   3.2   0.017   0.000   72.5    47   51.1   71.5   8.75  .0738    0.018   203    7    100.0   10 
 4/19/24  4:10p   63.6   63.6   62.5    46   42.4   6.0   NNE   1.00  11.0   NNE   63.6   61.4   61.4   74.5  29.997  0.00  0.00   661     9.48    673     2.9  0.21   3.0   0.010   0.000   72.6    47   51.2   71.7   8.75  .0738    0.000   203    7    100.0   10 
 4/19/24  4:20p   63.3   63.8   63.3    48   43.3   6.0   NNE   1.00  11.0   NNE   63.3   61.3   61.3   74.4  29.997  0.00  0.00   634     9.09    649     2.7  0.19   2.8   0.012   0.000   72.6    47   51.2   71.7   8.75  .0738    0.000   202    7    100.0   10 
 4/19/24  4:30p   62.9   63.3   62.6    53   45.5   6.0   NNE   1.00  10.0     N   62.9   61.3   61.3   74.5  29.997  0.00  0.00   607     8.70    621     2.5  0.18   2.6   0.015   0.000   72.7    47   51.3   71.8   8.75  .0738    0.000   204    7    100.0   10 
 4/19/24  4:40p   63.6   63.9   62.9    52   45.6   6.0    NE   1.00  10.0    NE   63.6   62.0   62.0   75.0  29.996  0.00  0.00   575     8.24    592     2.2  0.16   2.3   0.010   0.000   72.9    47   51.5   72.1   8.75  .0738    0.000   201    7    100.0   10 
 4/19/24  4:50p   62.6   63.6   62.5    53   45.2   8.0   NNE   1.33  13.0   NNE   61.6   61.0   60.0   72.6  29.992  0.00  0.00   562     8.06    570     2.1  0.15   2.1   0.017   0.000   72.9    47   51.5   72.1   8.75  .0737    0.000   203    7    100.0   10 
 4/19/24  5:00p   62.7   62.9   62.6    53   45.3   8.0    NE   1.33  15.0   NNE   61.7   61.1   60.1   72.4  29.989  0.00  0.00   525     7.53    547     1.8  0.13   1.9   0.016   0.000   73.0    47   51.6   72.3   8.75  .0737    0.016   204    7    100.0   10 
 4/19/24  5:10p   62.5   62.7   62.3    52   44.6   8.0   NNE   1.33  15.0    NE   61.5   60.8   59.8   71.0  29.992  0.00  0.00   467     6.69    515     1.6  0.11   1.7   0.017   0.000   73.1    47   51.7   72.4   8.75  .0737    0.000   204    7    100.0   10 
 4/19/24  5:20p   61.7   62.5   61.3    56   45.8   7.0    NE   1.17  13.0   NNE   61.3   60.2   59.8   69.7  29.991  0.00  0.00   390     5.59    480     1.3  0.09   1.4   0.023   0.000   73.2    47   51.8   72.5   8.75  .0737    0.000   204    7    100.0   10 
 4/19/24  5:30p   61.9   61.9   61.7    56   46.0   7.0   NNE   1.17  12.0   NNE   61.6   60.5   60.2   72.8  29.986  0.00  0.00   446     6.39    468     1.3  0.09   1.3   0.022   0.000   73.2    47   51.8   72.5   8.75  .0737    0.000   204    7    100.0   10 
 4/19/24  5:40p   62.5   62.5   62.0    55   46.1   6.0    NE   1.00  10.0   NNE   62.5   61.0   61.0   72.7  29.984  0.00  0.00   392     5.62    443     1.1  0.08   1.2   0.017   0.000   73.3    47   51.8   72.6   8.75  .0737    0.000   202    7    100.0   10 
 4/19/24  5:50p   62.4   62.6   62.3    53   45.0   6.0    NE   1.00  11.0    NE   62.4   60.8   60.8   68.1  29.982  0.00  0.00   266     3.81    364     0.8  0.06   1.0   0.018   0.000   73.3    47   51.8   72.6   8.75  .0736    0.000   203    7    100.0   10 
 4/19/24  6:00p   62.0   62.4   62.0    55   45.6   6.0    NE   1.00  10.0   NNE   62.0   60.5   60.5   71.6  29.984  0.00  0.00   348     4.99    367     0.8  0.06   0.8   0.021   0.000   73.3    47   51.8   72.6   8.75  .0737    0.011   203    7    100.0   10 
 4/19/24  6:10p   61.3   62.0   61.3    56   45.5   5.0    NE   0.83  10.0    NE   61.3   59.8   59.8   65.3  29.982  0.00  0.00   202     2.90    279     0.6  0.04   0.7   0.026   0.000   73.4    47   51.9   72.8   8.75  .0736    0.000   202    7    100.0   10 
 4/19/24  6:20p   61.1   61.3   61.0    55   44.8   5.0   NNE   0.83   9.0    NE   61.1   59.5   59.5   63.8  29.979  0.00  0.00   170     2.44    195     0.5  0.04   0.5   0.027   0.000   73.4    47   51.9   72.8   8.75  .0736    0.000   205    7    100.0   10 
 4/19/24  6:30p   61.8   61.8   61.1    55   45.5   4.0   NNE   0.67   9.0   NNE   61.8   60.3   60.3   61.6  29.978  0.00  0.00   215     3.08    253     0.2  0.01   0.5   0.022   0.000   73.4    47   51.9   72.8   8.75  .0736    0.000   203    7    100.0   10 
 4/19/24  6:40p   61.6   62.1   61.6    56   45.7   4.0   NNE   0.67   8.0   NNE   61.6   60.1   60.1   60.7  29.974  0.00  0.00   180     2.58    206     0.0  0.00   0.0   0.024   0.000   73.5    47   52.0   72.9   8.75  .0736    0.000   202    7    100.0   10 
 4/19/24  6:50p   61.7   61.8   61.6    56   45.8   4.0   NNE   0.67   8.0     N   61.7   60.2   60.2   60.0  29.973  0.00  0.00   146     2.09    192     0.0  0.00   0.0   0.023   0.000   73.5    47   52.0   72.9   8.75  .0736    0.000   203    7    100.0   10 
 4/19/24  7:00p   62.3   62.3   61.7    54   45.4   3.0    NE   0.50   5.0   NNE   62.3   60.7   60.7   59.9  29.968  0.00  0.00   118     1.69    141     0.0  0.00   0.0   0.019   0.000   73.6    47   52.1   73.0   8.75  .0736    0.005   202    7    100.0   10 
 4/19/24  7:10p   63.1   63.1   62.3    50   44.2   3.0    NE   0.50   5.0    NE   63.1   61.2   61.2   59.6  29.967  0.00  0.00    83     1.19    105     0.0  0.00   0.0   0.013   0.000   73.6    47   52.1   73.0   8.75  .0736    0.000   203    7    100.0   10 
 4/19/24  7:20p   63.1   63.3   63.0    52   45.2   3.0    NE   0.50   7.0   NNE   63.1   61.4   61.4   59.3  29.966  0.00  0.00    57     0.82     76     0.0  0.00   0.0   0.013   0.000   73.6    47   52.1   73.0   8.75  .0736    0.000   202    7    100.0   10 
 4/19/24  7:30p   62.1   63.0   62.1    52   44.3   3.0    NE   0.50   4.0   ENE   62.1   60.4   60.4   57.8  29.964  0.00  0.00    35     0.50     44     0.0  0.00   0.0   0.020   0.000   73.5    46   51.4   72.8   8.58  .0736    0.000   200    7    100.0   10 
 4/19/24  7:40p   61.5   62.1   61.5    51   43.2   2.0    NE   0.33   8.0   NNE   61.5   59.6   59.6   56.8  29.960  0.00  0.00    28     0.40     30     0.0  0.00   0.0   0.024   0.000   73.4    45   50.8   72.6   8.45  .0736    0.000   205    7    100.0   10 
 4/19/24  7:50p   61.2   61.5   61.2    48   41.3   2.0    NE   0.33   5.0    NE   61.2   59.1   59.1   56.1  29.959  0.00  0.00    21     0.30     25     0.0  0.00   0.0   0.026   0.000   73.2    45   50.6   72.4   8.45  .0736    0.000   203    7    100.0   10 
 4/19/24  8:00p   61.1   61.3   61.1    59   46.7   0.0    NE   0.00   2.0    SE   61.1   59.8   59.8   56.8  29.963  0.00  0.00    12     0.17     16     0.0  0.00   0.0   0.027   0.000   73.2    46   51.2   72.4   8.59  .0736    0.002   204    7    100.0   10 
 4/19/24  8:10p   60.3   61.1   60.3    61   46.8   0.0    SE   0.00   1.0    SE   60.3   59.1   59.1   55.9  29.966  0.00  0.00     3     0.04      7     0.0  0.00   0.0   0.033   0.000   73.2    46   51.2   72.4   8.59  .0736    0.000   200    7    100.0   10 
 4/19/24  8:20p   59.4   60.3   59.4    62   46.4   0.0    SE   0.00   1.0    SE   59.4   58.2   58.2   54.9  29.965  0.00  0.00     0     0.00      0     0.0  0.00   0.0   0.039   0.000   73.1    46   51.1   72.3   8.59  .0737    0.000   204    7    100.0   10 
 4/19/24  8:30p   58.0   59.4   58.0    60   44.2   0.0    SE   0.00   1.0    SE   58.0   56.7   56.7   53.4  29.965  0.00  0.00     0     0.00      0     0.0  0.00   0.0   0.049   0.000   73.0    46   51.0   72.2   8.59  .0737    0.000   202    7    100.0   10 
 4/19/24  8:40p   57.7   58.0   57.7    52   40.2   0.0    SE   0.00   1.0    SE   57.7   55.9   55.9   52.4  29.966  0.00  0.00     0     0.00      0     0.0  0.00   0.0   0.051   0.000   73.0    46   51.0   72.2   8.59  .0737    0.000   204    7    100.0   10 
 4/19/24  8:50p   57.7   57.8   57.7    55   41.6   1.0   ENE   0.17   3.0   ENE   57.7   56.1   56.1   52.6  29.968  0.00  0.00     0     0.00      0     0.0  0.00   0.0   0.051   0.000   73.0    46   51.0   72.2   8.59  .0737    0.000   204    7    100.0   10 
 4/19/24  9:00p   56.7   57.7   56.7    61   43.4   1.0   ENE   0.17   3.0   ENE   56.7   55.5   55.5   52.1  29.970  0.00  0.00     0     0.00      0     0.0  0.00   0.0   0.058   0.000   73.0    46   51.0   72.2   8.59  .0737    0.000   204    7    100.0   10 
 4/19/24  9:10p   55.3   56.6   55.3    66   44.1   1.0   ENE   0.17   4.0   WNW   55.3   54.3   54.3   51.0  29.971  0.00  0.00     0     0.00      0     0.0  0.00   0.0   0.067   0.000   73.0    46   51.0   72.2   8.59  .0737    0.000   204    7    100.0   10 
 4/19/24  9:20p   54.3   55.3   54.2    69   44.3   1.0    NW   0.17   3.0    NW   54.3   53.5   53.5   50.2  29.973  0.00  0.00     0     0.00      0     0.0  0.00   0.0   0.074   0.000   72.9    46   50.9   72.0   8.59  .0737    0.000   204    7    100.0   10 
 4/19/24  9:30p   54.3   54.3   54.2    71   45.1   0.0    NW   0.00   2.0    NW   54.3   53.6   53.6   50.3  29.975  0.00  0.00     0     0.00      0     0.0  0.00   0.0   0.074   0.000   72.9    46   50.9   72.0   8.59  .0737    0.000   201    7    100.0   10 
 4/19/24  9:40p   54.4   54.4   54.2    73   45.9   0.0    NW   0.00   1.0    NW   54.4   53.8   53.8   50.5  29.974  0.00  0.00     0     0.00      0     0.0  0.00   0.0   0.074   0.000   72.9    46   50.9   72.0   8.59  .0737    0.000   205    7    100.0   10 
 4/19/24  9:50p   54.0   54.4   54.0    73   45.5   0.0    NW   0.00   1.0    NW   54.0   53.4   53.4   50.1  29.974  0.00  0.00     0     0.00      0     0.0  0.00   0.0   0.076   0.000   72.9    46   50.9   72.0   8.59  .0737    0.000   201    7    100.0   10 
 4/19/24 10:00p   53.4   54.0   53.4    73   45.0   0.0    NW   0.00   1.0    NW   53.4   52.8   52.8   49.5  29.975  0.00  0.00     0     0.00      0     0.0  0.00   0.0   0.081   0.000   72.9    46   50.9   72.0   8.59  .0737    0.001   201    7    100.0   10 
 4/19/24 10:10p   52.0   53.4   52.0    72   43.3   1.0     N   0.17   4.0   ESE   52.0   51.5   51.5   48.1  29.974  0.00  0.00     0     0.00      0     0.0  0.00   0.0   0.090   0.000   72.8    46   50.8   71.9   8.59  .0737    0.000   203    7    100.0   10 
 4/19/24 10:20p   51.2   52.0   51.2    72   42.5   1.0   ESE   0.17   4.0     E   51.2   50.8   50.8   47.4  29.973  0.00  0.00     0     0.00      0     0.0  0.00   0.0   0.096   0.000   72.7    46   50.7   71.7   8.60  .0737    0.000   201    7    100.0   10 
 4/19/24 10:30p   50.9   51.2   50.9    73   42.6   1.0   ESE   0.17   3.0    SE   50.9   50.5   50.5   47.1  29.968  0.00  0.00     0     0.00      0     0.0  0.00   0.0   0.098   0.000   72.7    46   50.7   71.7   8.60  .0737    0.000   200    7    100.0   10 
 4/19/24 10:40p   51.2   51.2   50.9    74   43.2   0.0   ESE   0.00   1.0   ESE   51.2   50.8   50.8   47.4  29.968  0.00  0.00     0     0.00      0     0.0  0.00   0.0   0.096   0.000   72.7    46   50.7   71.7   8.60  .0737    0.000   203    7    100.0   10 
 4/19/24 10:50p   51.4   51.5   51.2    73   43.0   0.0    SE   0.00   3.0    SE   51.4   51.0   51.0   47.6  29.971  0.00  0.00     0     0.00      0     0.0  0.00   0.0   0.094   0.000   72.7    46   50.7   71.7   8.60  .0737    0.000   201    7    100.0   10 
 4/19/24 11:00p   50.8   51.4   50.8    73   42.5   1.0   ESE   0.17   3.0   ENE   50.8   50.4   50.4   47.0  29.966  0.00  0.00     0     0.00      0     0.0  0.00   0.0   0.099   0.000   72.6    46   50.6   71.6   8.60  .0737    0.001   203    7    100.0   10 
 4/19/24 11:10p   50.6   50.8   50.6    73   42.3   1.0   ESE   0.17   2.0   ESE   50.6   50.3   50.3   46.9  29.966  0.00  0.00     0     0.00      0     0.0  0.00   0.0   0.100   0.000   72.6    46   50.6   71.6   8.60  .0737    0.000   200    7    100.0   10 
 4/19/24 11:20p   51.1   51.1   50.6    72   42.4   2.0   SSE   0.33   6.0   ESE   51.1   50.7   50.7   47.3  29.970  0.00  0.00     0     0.00      0     0.0  0.00   0.0   0.097   0.000   72.5    46   50.5   71.4   8.60  .0738    0.000   202    7    100.0   10 
 4/19/24 11:30p   50.3   51.0   50.3    73   42.0   1.0   ESE   0.17   4.0   SSE   50.3   50.0   50.0   46.5  29.965  0.00  0.00     0     0.00      0     0.0  0.00   0.0   0.102   0.000   72.5    46   50.5   71.4   8.60  .0738    0.000   205    7    100.0   10 
 4/19/24 11:40p   50.0   50.3   50.0    74   42.0   1.0    SE   0.17   2.0   SSE   50.0   49.8   49.8   46.4  29.965  0.00  0.00     0     0.00      0     0.0  0.00   0.0   0.104   0.000   72.5    46   50.5   71.4   8.60  .0738    0.000   204    7    100.0   10 
 4/19/24 11:50p   51.2   51.2   50.0    73   42.8   3.0     S   0.50   7.0     S   51.0   50.8   50.6   47.2  29.967  0.00  0.00     0     0.00      0     0.0  0.00   0.0   0.096   0.000   72.4    46   50.4   71.3   8.60  .0738    0.000   202    7    100.0   10 
 4/20/24 12:00a   51.4   51.5   51.2    72   42.7   1.0   SSE   0.17   4.0   ESE   51.4   50.9   50.9   47.5  29.966  0.00  0.00     0     0.00      0     0.0  0.00   0.0   0.094   0.000   72.3    46   50.4   71.1   8.60  .0738    0.001   201    7    100.0   10 
 4/20/24 12:10a   50.9   51.5   50.9    72   42.2   2.0   SSE   0.33   6.0     S   50.9   50.5   50.5   47.1  29.970  0.00  0.00     0     0.00      0     0.0  0.00   0.0   0.098   0.000   72.3    46   50.4   71.1   8.60  .0738    0.000   203    7    100.0   10 
 4/20/24 12:20a   50.6   51.0   50.6    73   42.3   2.0     S   0.33   7.0     S   50.6   50.3   50.3   46.9  29.967  0.00  0.00     0     0.00      0     0.0  0.00   0.0   0.100   0.000   72.3    46   50.4   71.1   8.60  .0738    0.000   204    7    100.0   10 
 4/20/24 12:30a   50.0   50.6   50.0    73   41.7   1.0   SSE   0.17   4.0   SSE   50.0   49.7   49.7   46.2  29.965  0.00  0.00     0     0.00      0     0.0  0.00   0.0   0.104   0.000   72.2    46   50.3   71.0   8.61  .0738    0.000   204    7    100.0   10 
 4/20/24 12:40a   50.0   50.0   49.9    73   41.7   1.0   SSE   0.17   4.0     S   50.0   49.7   49.7   46.2  29.966  0.00  0.00     0     0.00      0     0.0  0.00   0.0   0.104   0.000   72.1    46   50.2   70.8   8.61  .0738    0.000   203    7    100.0   10 
 4/20/24 12:50a   49.7   49.9   49.6    74   41.7   3.0     S   0.50   8.0     S   49.3   49.4   49.0   45.5  29.972  0.00  0.00     0     0.00      0     0.0  0.00   0.0   0.106   0.000   72.1    46   50.2   70.8   8.61  .0738    0.000   201    7    100.0   10 
 4/20/24  1:00a   50.3   50.3   49.7    73   42.0   3.0   SSE   0.50   8.0     E   50.0   50.0   49.7   46.2  29.966  0.00  0.00     0     0.00      0     0.0  0.00   0.0   0.102   0.000   72.0    47   50.7   70.8   8.75  .0738    0.001   201    7    100.0   10 
 4/20/24  1:10a   50.4   50.6   50.4    72   41.7   2.0     S   0.33   5.0   SSE   50.4   50.0   50.0   46.5  29.966  0.00  0.00     0     0.00      0     0.0  0.00   0.0   0.101   0.000   72.0    47   50.7   70.8   8.75  .0738    0.000   202    7    100.0   10 
 4/20/24  1:20a   50.1   50.4   49.5    74   42.1   3.0     S   0.50   8.0     S   49.8   49.8   49.5   46.1  29.966  0.00  0.00     0     0.00      0     0.0  0.00   0.0   0.103   0.000   71.9    47   50.6   70.6   8.75  .0738    0.000   202    7    100.0   10 
 4/20/24  1:30a   50.3   50.3   50.1    72   41.6   3.0     S   0.50   6.0   SSE   50.0   50.0   49.7   46.2  29.967  0.00  0.00     0     0.00      0     0.0  0.00   0.0   0.102   0.000   71.8    47   50.5   70.5   8.75  .0739    0.000   204    7    100.0   10 
 4/20/24  1:40a   50.0   50.3   50.0    72   41.3   2.0     S   0.33   6.0     S   50.0   49.7   49.7   46.2  29.966  0.00  0.00     0     0.00      0     0.0  0.00   0.0   0.104   0.000   71.8    47   50.5   70.5   8.75  .0739    0.000   203    7    100.0   10 
 4/20/24  1:50a   49.8   50.0   49.8    73   41.5   2.0     S   0.33   5.0     S   49.8   49.5   49.5   46.0  29.964  0.00  0.00     0     0.00      0     0.0  0.00   0.0   0.106   0.000   71.7    47   50.4   70.3   8.75  .0739    0.000   201    7    100.0   10 
 4/20/24  2:00a   49.7   49.8   49.5    72   41.0   1.0     S   0.17   4.0   SSE   49.7   49.4   49.4   45.9  29.960  0.00  0.00     0     0.00      0     0.0  0.00   0.0   0.106   0.000   71.7    47   50.4   70.3   8.75  .0739    0.001   203    7    100.0   10 
 4/20/24  2:10a   48.7   49.7   48.7    73   40.4   2.0     S   0.33   6.0   ESE   48.7   48.3   48.3   44.8  29.964  0.00  0.00     0     0.00      0     0.0  0.00   0.0   0.113   0.000   71.6    47   50.3   70.2   8.75  .0739    0.000   202    7    100.0   10 
 4/20/24  2:20a   48.8   48.8   48.4    73   40.5   2.0    SE   0.33   6.0   ESE   48.8   48.5   48.5   45.0  29.968  0.00  0.00     0     0.00      0     0.0  0.00   0.0   0.113   0.000   71.6    47   50.3   70.2   8.75  .0739    0.000   201    7    100.0   10 
 4/20/24  2:30a   48.5   48.8   48.5    73   40.2   1.0    SE   0.17   4.0   SSE   48.5   48.1   48.1   44.6  29.977  0.00  0.00     0     0.00      0     0.0  0.00   0.0   0.115   0.000   71.5    47   50.2   70.0   8.75  .0739    0.000   203    7    100.0   10 
 4/20/24  2:40a   48.5   48.5   48.2    74   40.6   2.0     S   0.33   6.0     E   48.5   48.2   48.2   44.7  29.979  0.00  0.00     0     0.00      0     0.0  0.00   0.0   0.115   0.000   71.4    47   50.1   69.9   8.75  .0740    0.000   204    7    100.0   10 
 4/20/24  2:50a   49.0   49.0   48.4    74   41.1   2.0   SSE   0.33   6.0     S   49.0   48.7   48.7   45.2  29.974  0.00  0.00     0     0.00      0     0.0  0.00   0.0   0.111   0.000   71.4    47   50.1   69.9   8.75  .0740    0.000   203    7    100.0   10 
 4/20/24  3:00a   48.2   49.0   48.2    73   39.9   2.0   ESE   0.33   5.0   ESE   48.2   47.8   47.8   44.2  29.973  0.00  0.00     0     0.00      0     0.0  0.00   0.0   0.117   0.000   71.3    47   50.0   69.8   8.75  .0740    0.001   203    7    100.0   10 
 4/20/24  3:10a   47.7   48.2   47.7    74   39.8   2.0    SE   0.33   7.0   ESE   47.7   47.4   47.4   43.8  29.974  0.00  0.00     0     0.00      0     0.0  0.00   0.0   0.120   0.000   71.2    47   49.9   69.6   8.75  .0740    0.000   203    7    100.0   10 
 4/20/24  3:20a   47.3   47.7   47.2    75   39.8   2.0   ESE   0.33   4.0     E   47.3   47.0   47.0   43.4  29.974  0.00  0.00     0     0.00      0     0.0  0.00   0.0   0.123   0.000   71.2    47   49.9   69.6   8.75  .0740    0.000   203    7    100.0   10 
 4/20/24  3:30a   47.3   47.4   47.3    75   39.8   2.0   ESE   0.33   6.0   SSE   47.3   47.0   47.0   43.4  29.973  0.00  0.00     0     0.00      0     0.0  0.00   0.0   0.123   0.000   71.1    47   49.8   69.4   8.75  .0740    0.000   204    7    100.0   10 
 4/20/24  3:40a   47.5   47.6   47.2    75   40.0   2.0   SSE   0.33   4.0   SSE   47.5   47.2   47.2   43.6  29.972  0.00  0.00     0     0.00      0     0.0  0.00   0.0   0.122   0.000   71.0    47   49.7   69.3   8.75  .0740    0.000   203    7    100.0   10 
 4/20/24  3:50a   47.5   47.5   47.3    74   39.6   1.0   ESE   0.17   6.0     E   47.5   47.2   47.2   43.6  29.971  0.00  0.00     0     0.00      0     0.0  0.00   0.0   0.122   0.000   71.0    47   49.7   69.3   8.75  .0740    0.000   205    7    100.0   10 
 4/20/24  4:00a   47.5   47.6   47.4    74   39.6   1.0   ESE   0.17   3.0   ESE   47.5   47.2   47.2   43.6  29.967  0.00  0.00     0     0.00      0     0.0  0.00   0.0   0.122   0.000   70.9    47   49.7   69.2   8.75  .0740    0.001   200    7    100.0   10 
 4/20/24  4:10a   47.9   47.9   47.5    73   39.7   0.0   ESE   0.00   2.0   ESE   47.9   47.5   47.5   43.9  29.971  0.00  0.00     0     0.00      0     0.0  0.00   0.0   0.119   0.000   70.8    47   49.6   69.0   8.75  .0740    0.000   202    7    100.0   10 
 4/20/24  4:20a   48.5   48.5   47.9    73   40.2   1.0    SW   0.17   3.0     S   48.5   48.1   48.1   44.6  29.977  0.00  0.00     0     0.00      0     0.0  0.00   0.0   0.115   0.000   70.8    47   49.6   69.0   8.75  .0741    0.000   203    7    100.0   10 
 4/20/24  4:30a   48.5   48.5   48.4    72   39.9   0.0   ESE   0.00   1.0   ESE   48.5   48.1   48.1   44.5  29.976  0.00  0.00     0     0.00      0     0.0  0.00   0.0   0.115   0.000   70.7    47   49.5   68.9   8.75  .0741    0.000   203    7    100.0   10 
 4/20/24  4:40a   48.8   48.8   48.5    72   40.2   1.0   ESE   0.17   2.0   ESE   48.8   48.4   48.4   44.9  29.981  0.00  0.00     0     0.00      0     0.0  0.00   0.0   0.113   0.000   70.7    47   49.5   68.9   8.75  .0741    0.000   201    7    100.0   10 
 4/20/24  4:50a   48.5   48.8   48.5    71   39.5   0.0   ESE   0.00   2.0   ESE   48.5   48.1   48.1   44.5  29.983  0.00  0.00     0     0.00      0     0.0  0.00   0.0   0.115   0.000   70.5    47   49.3   68.6   8.75  .0741    0.000   201    7    100.0   10 
 4/20/24  5:00a   47.4   48.5   47.4    72   38.8   1.0     E   0.17   3.0   ESE   47.4   47.0   47.0   43.4  29.979  0.00  0.00     0     0.00      0     0.0  0.00   0.0   0.122   0.000   70.5    47   49.3   68.6   8.75  .0741    0.001   202    7    100.0   10 
 4/20/24  5:10a   46.8   47.4   46.8    73   38.6   1.0     E   0.17   2.0     E   46.8   46.4   46.4   42.8  29.977  0.00  0.00     0     0.00      0     0.0  0.00   0.0   0.126   0.000   70.4    47   49.2   68.5   8.75  .0741    0.000   202    7    100.0   10 
 4/20/24  5:20a   48.0   48.0   46.8    73   39.8   1.0    SE   0.17   4.0     S   48.0   47.6   47.6   44.0  29.981  0.00  0.00     0     0.00      0     0.0  0.00   0.0   0.118   0.000   70.3    47   49.1   68.4   8.75  .0742    0.000   202    7    100.0   10 
 4/20/24  5:30a   48.7   48.7   48.0    72   40.1   2.0     S   0.33   5.0     S   48.7   48.3   48.3   44.8  29.986  0.00  0.00     0     0.00      0     0.0  0.00   0.0   0.113   0.000   70.3    47   49.1   68.4   8.75  .0742    0.000   203    7    100.0   10 
 4/20/24  5:40a   48.7   48.9   48.7    71   39.7   1.0   ESE   0.17   4.0   SSE   48.7   48.3   48.3   44.7  29.985  0.00  0.00     0     0.00      0     0.0  0.00   0.0   0.113   0.000   70.2    47   49.0   68.3   8.75  .0742    0.000   202    7    100.0   10 
 4/20/24  5:50a   48.2   48.7   48.2    71   39.2   2.0     S   0.33   6.0     S   48.2   47.8   47.8   44.2  29.986  0.00  0.00     0     0.00      0     0.0  0.00   0.0   0.117   0.000   70.1    47   48.9   68.1   8.75  .0742    0.000   203    7    100.0   10 
 4/20/24  6:00a   48.2   48.2   48.0    71   39.2   2.0     S   0.33   6.0   ESE   48.2   47.8   47.8   44.2  29.985  0.00  0.00     0     0.00      0     0.0  0.00   0.0   0.117   0.000   70.1    47   48.9   68.1   8.75  .0742    0.001   200    7    100.0   10 
 4/20/24  6:10a   48.2   48.2   48.0    71   39.2   2.0     E   0.33   4.0   ENE   48.2   47.8   47.8   44.2  29.982  0.00  0.00     0     0.00      0     0.0  0.00   0.0   0.117   0.000   70.0    47   48.8   68.0   8.75  .0742    0.000   200    7    100.0   10 
 4/20/24  6:20a   48.7   48.7   48.1    71   39.7   1.0   SSW   0.17   6.0   SSE   48.7   48.3   48.3   44.7  29.982  0.00  0.00     0     0.00      0     0.0  0.00   0.0   0.113   0.000   70.0    47   48.8   68.0   8.75  .0742    0.000   204    7    100.0   10 
 4/20/24  6:30a   48.5   48.7   48.5    71   39.5   2.0   SSW   0.33   6.0   ENE   48.5   48.1   48.1   44.7  29.988  0.00  0.00     7     0.10      9     0.0  0.00   0.0   0.115   0.000   70.1    47   48.9   68.1   8.75  .0742    0.000   204    7    100.0   10 
 4/20/24  6:40a   48.7   48.7   48.3    71   39.7   2.0     S   0.33   8.0   ENE   48.7   48.3   48.3   45.0  29.987  0.00  0.00    12     0.17     14     0.0  0.00   0.0   0.113   0.000   70.2    47   49.0   68.3   8.75  .0742    0.000   203    7    100.0   10 
 4/20/24  6:50a   48.6   48.7   48.6    70   39.3   1.0     S   0.17   4.0   SSE   48.6   48.2   48.2   45.0  29.989  0.00  0.00    18     0.26     21     0.0  0.00   0.0   0.114   0.000   70.3    47   49.1   68.4   8.75  .0742    0.000   200    7    100.0   10 
 4/20/24  7:00a   48.7   48.7   48.5    70   39.4   2.0     E   0.33   7.0     E   48.7   48.3   48.3   45.2  29.990  0.00  0.00    21     0.30     23     0.0  0.00   0.0   0.113   0.000   70.3    47   49.1   68.4   8.75  .0742    0.001   204    7    100.0   10 
 4/20/24  7:10a   49.8   49.8   48.7    68   39.7   3.0     E   0.50   8.0     E   49.5   49.3   49.0   46.0  29.990  0.00  0.00    24     0.34     25     0.0  0.00   0.0   0.106   0.000   70.4    47   49.2   68.5   8.75  .0742    0.000   202    7    100.0   10 
 4/20/24  7:20a   50.3   50.3   49.8    66   39.4   2.0   ESE   0.33   9.0     E   50.3   49.7   49.7   46.7  29.995  0.00  0.00    27     0.39     28     0.0  0.00   0.0   0.102   0.000   70.6    47   49.4   68.8   8.75  .0741    0.000   203    7    100.0   10 
 4/20/24  7:30a   50.3   50.5   50.3    66   39.4   2.0     S   0.33   9.0   ESE   50.3   49.7   49.7   46.8  30.001  0.00  0.00    30     0.43     32     0.0  0.00   0.0   0.102   0.000   70.7    47   49.5   68.9   8.75  .0741    0.000   201    7    100.0   10 
 4/20/24  7:40a   50.2   50.4   50.2    66   39.3   2.0     E   0.33   5.0   SSE   50.2   49.6   49.6   46.8  30.001  0.00  0.00    36     0.52     39     0.0  0.00   0.0   0.103   0.000   70.6    47   49.4   68.8   8.75  .0742    0.000   204    7    100.0   10 
 4/20/24  7:50a   49.3   50.3   49.3    68   39.2   1.0     E   0.17   6.0     E   49.3   48.8   48.8   46.4  29.998  0.00  0.00    55     0.79    137     0.0  0.00   0.0   0.109   0.000   70.6    47   49.4   68.8   8.75  .0741    0.000   203    7    100.0   10 
 4/20/24  8:00a   49.9   49.9   49.2    69   40.1   1.0     S   0.17   5.0    NE   49.9   49.5   49.5   58.7  29.994  0.00  0.00   278     3.99    325     0.0  0.00   0.0   0.105   0.000   70.6    47   49.4   68.8   8.75  .0741    0.002   203    7    100.0   10 
 4/20/24  8:10a   51.7   51.7   50.0    68   41.5   1.0     S   0.17   3.0   SSW   51.7   51.0   51.0   62.5  29.996  0.00  0.00   340     4.87    425     0.4  0.03   0.5   0.092   0.000   70.5    47   49.3   68.6   8.75  .0742    0.000   204    7    100.0   10 
 4/20/24  8:20a   52.5   52.6   51.8    64   40.7   2.0    SE   0.33   4.0    SE   52.5   51.6   51.6   55.3  29.996  0.00  0.00   152     2.18    241     0.5  0.04   0.5   0.087   0.000   70.5    47   49.3   68.6   8.75  .0742    0.000   204    7    100.0   10 
 4/20/24  8:30a   52.2   52.6   52.2    63   40.0   3.0     S   0.50   5.0   SSE   52.1   51.3   51.2   53.1  29.998  0.00  0.00    98     1.40    121     0.6  0.04   0.7   0.089   0.000   70.5    47   49.3   68.6   8.75  .0742    0.000   203    7    100.0   10 
 4/20/24  8:40a   52.7   52.7   52.0    64   40.9   1.0   ENE   0.17   4.0   SSE   52.7   51.8   51.8   60.8  29.994  0.00  0.00   323     4.63    425     0.8  0.06   0.9   0.085   0.000   70.5    47   49.3   68.6   8.75  .0742    0.000   201    7    100.0   10 
 4/20/24  8:50a   53.9   53.9   52.7    63   41.6   1.0     S   0.17   3.0   SSE   53.9   52.8   52.8   65.5  29.994  0.00  0.00   433     6.21    446     1.0  0.07   1.1   0.077   0.000   70.4    47   49.2   68.5   8.75  .0742    0.000   204    7    100.0   10 
 4/20/24  9:00a   54.8   54.8   54.0    60   41.2   2.0     S   0.33   6.0     S   54.8   53.5   53.5   66.3  29.998  0.00  0.00   464     6.65    478     1.2  0.09   1.2   0.071   0.000   70.4    47   49.2   68.5   8.75  .0742    0.006   205    7    100.0   10 
 4/20/24  9:10a   55.3   55.3   54.8    59   41.2   2.0     S   0.33   6.0     S   55.3   54.0   54.0   67.0  29.998  0.00  0.00   494     7.08    508     1.3  0.09   1.4   0.067   0.000   70.4    47   49.2   68.5   8.75  .0742    0.000   203    7    100.0   10 
 4/20/24  9:20a   55.8   55.9   55.3    59   41.7   3.0     S   0.50   7.0     S   55.8   54.4   54.4   67.6  30.002  0.00  0.00   524     7.51    534     1.5  0.11   1.6   0.064   0.000   70.4    47   49.2   68.5   8.75  .0742    0.000   204    7    100.0   10 
 4/20/24  9:30a   55.2   55.9   55.2    60   41.5   5.0     S   0.83  12.0   SSE   54.3   53.9   53.0   66.2  30.006  0.00  0.00   550     7.88    592     1.7  0.12   1.8   0.068   0.000   70.4    47   49.2   68.5   8.75  .0742    0.000   204    7    100.0   10 
 4/20/24  9:40a   55.7   55.9   55.2    61   42.5  11.0     S   1.83  18.0   SSE   51.4   54.5   50.2   60.6  30.010  0.00  0.00   549     7.87    599     1.8  0.13   2.0   0.065   0.000   70.4    47   49.2   68.5   8.75  .0742    0.000   200    7    100.0   10 
 4/20/24  9:50a   55.8   56.0   55.6    60   42.1  14.0     S   2.33  24.0     S   50.1   54.5   48.8   59.0  30.013  0.00  0.00   609     8.73    621     2.1  0.15   2.2   0.064   0.000   70.4    47   49.2   68.5   8.75  .0742    0.000   202    7    100.0   10 
 4/20/24 10:00a   55.8   56.6   55.8    60   42.1  17.0     S   2.83  28.0   SSE   49.2   54.5   47.9   57.2  30.020  0.00  0.00   636     9.12    654     2.3  0.16   2.4   0.064   0.000   70.3    47   49.1   68.4   8.75  .0743    0.014   203    7    100.0   10 
 4/20/24 10:10a   55.6   55.8   55.2    61   42.4  15.0     S   2.50  23.0   SSE   49.6   54.4   48.4   58.5  30.031  0.00  0.00   671     9.62    696     2.5  0.18   2.7   0.065   0.000   70.4    47   49.2   68.5   8.75  .0743    0.000   202    7    100.0   10 
 4/20/24 10:20a   56.2   56.3   55.3    57   41.2  15.0     S   2.50  23.0   SSE   50.2   54.7   48.7   60.6  30.038  0.00  0.00   804    11.53    912     2.9  0.21   3.2   0.061   0.000   70.4    47   49.2   68.5   8.75  .0743    0.000   205    7    100.0   10 
 4/20/24 10:30a   55.6   56.3   55.5    62   42.8  17.0     S   2.83  25.0     S   49.0   54.4   47.8   57.4  30.050  0.00  0.00   734    10.52    896     2.8  0.20   3.3   0.065   0.000   70.4    47   49.2   68.5   8.75  .0743    0.000   204    7    100.0   10 
 4/20/24 10:40a   56.2   56.2   55.5    56   40.7  15.0     S   2.50  24.0   SSE   50.2   54.7   48.7   55.9  30.052  0.00  0.00   504     7.22    571     2.6  0.19   2.8   0.061   0.000   70.5    46   48.7   68.6   8.64  .0743    0.000   204    7    100.0   10 
 4/20/24 10:50a   55.7   56.2   55.7    61   42.5  17.0     S   2.83  28.0     S   49.1   54.5   47.9   53.5  30.063  0.00  0.00   397     5.69    480     2.4  0.17   3.6   0.065   0.000   70.5    46   48.7   68.6   8.64  .0743    0.000   204    7    100.0   10 
 4/20/24 11:00a   55.9   55.9   55.6    62   43.1  15.0     S   2.50  27.0   SSE   49.9   54.7   48.7   55.0  30.071  0.00  0.00   433     6.21    482     3.0  0.21   3.7   0.063   0.000   70.5    46   48.7   68.6   8.64  .0744    0.016   204    7    100.0   10 
 4/20/24 11:10a   55.8   56.0   55.7    64   43.8  13.0     S   2.17  24.0    SE   50.5   54.7   49.4   54.3  30.070  0.00  0.00   321     4.60    513     2.2  0.16   2.8   0.064   0.000   70.5    46   48.7   68.6   8.64  .0744    0.000   203    7    100.0   10 
 4/20/24 11:20a   55.1   55.7   55.1    69   45.1  15.0     S   2.50  25.0   SSE   49.0   54.3   48.2   51.9  30.079  0.00  0.00   272     3.90    403     2.0  0.14   3.0   0.069   0.000   70.6    46   48.8   68.7   8.64  .0744    0.000   204    7    100.0   10 
 4/20/24 11:30a   55.2   55.3   55.1    70   45.6  14.0     S   2.33  27.0   SSE   49.4   54.4   48.6   53.5  30.083  0.00  0.00   338     4.85    408     2.7  0.19   3.4   0.068   0.000   70.6    46   48.8   68.7   8.64  .0744    0.000   204    7    100.0   10 
 4/20/24 11:40a   55.7   55.9   55.3    71   46.4  14.0     S   2.33  23.0     S   50.0   54.9   49.2   57.1  30.094  0.00  0.00   650     9.32    742     3.9  0.28   5.3   0.065   0.000   70.6    46   48.8   68.7   8.64  .0744    0.000   201    7    100.0   10 
 4/20/24 11:50a   55.6   55.9   55.6    72   46.7  16.0     S   2.67  23.0   SSE   49.3   54.9   48.6   55.5  30.098  0.00  0.00   535     7.67    615     4.0  0.29   5.4   0.065   0.000   70.7    46   48.9   68.8   8.64  .0744    0.000   202    7    100.0   10 
 4/20/24 12:00p   55.6   55.6   55.3    74   47.4  15.0     S   2.50  23.0   SSE   49.6   55.0   49.0   55.8  30.101  0.00  0.00   499     7.15    628     3.2  0.23   4.0   0.065   0.000   70.6    46   48.8   68.7   8.64  .0744    0.012   203    7    100.0   10 
 4/20/24 12:10p   55.5   55.6   55.5    75   47.7  14.0     S   2.33  20.0     S   49.8   55.0   49.3   56.6  30.107  0.00  0.00   536     7.68    642     3.5  0.25   4.2   0.066   0.000   70.7    46   48.9   68.8   8.64  .0744    0.000   204    7    100.0   10 
 4/20/24 12:20p   55.2   55.6   55.1    77   48.1  15.0     S   2.50  21.0     S   49.1   54.8   48.7   55.7  30.114  0.00  0.00   532     7.63    601     3.5  0.25   4.0   0.068   0.000   70.7    46   48.9   68.8   8.64  .0744    0.000   204    7    100.0   10 
 4/20/24 12:30p   55.1   55.3   55.0    78   48.4  14.0     S   2.33  21.0     S   49.3   54.7   48.9   56.4  30.115  0.00  0.00   565     8.10    861     3.9  0.28   5.1   0.069   0.000   70.8    46   49.0   68.9   8.63  .0744    0.000   203    7    100.0   10 
 4/20/24 12:40p   55.1   55.1   55.0    78   48.4  12.0     S   2.00  21.0   SSE   50.1   54.7   49.7   56.9  30.112  0.00  0.00   492     7.05    577     3.4  0.24   3.8   0.069   0.000   70.8    46   49.0   68.9   8.63  .0744    0.000   204    7    100.0   10 
 4/20/24 12:50p   54.8   55.1   54.8    79   48.4  12.0     S   2.00  20.0   SSE   49.8   54.5   49.5   55.1  30.116  0.00  0.00   377     5.40    589     2.8  0.20   3.9   0.071   0.000   70.8    46   49.0   68.9   8.63  .0744    0.000   203    7    100.0   10 
 4/20/24  1:00p   54.8   54.9   54.7    80   48.7  12.0     S   2.00  23.0     S   49.8   54.5   49.5   57.5  30.115  0.00  0.00   565     8.10    631     3.9  0.28   4.2   0.071   0.000   70.9    46   49.1   69.1   8.63  .0744    0.012   203    7    100.0   10 
 4/20/24  1:10p   55.0   55.0   54.8    80   48.9  13.0     S   2.17  20.0   SSE   49.6   54.7   49.3   56.3  30.113  0.00  0.00   497     7.12    563     3.5  0.25   3.8   0.069   0.000   70.9    46   49.1   69.1   8.63  .0744    0.000   204    7    100.0   10 
 4/20/24  1:20p   55.1   55.1   54.8    81   49.4  10.0     S   1.67  16.0     S   51.2   54.8   50.9   58.1  30.116  0.00  0.00   451     6.47    478     3.1  0.22   3.3   0.069   0.000   70.9    46   49.1   69.1   8.63  .0744    0.000   204    7    100.0   10 
 4/20/24  1:30p   54.8   55.1   54.8    81   49.1  12.0     S   2.00  21.0     S   49.8   54.5   49.5   55.1  30.122  0.00  0.00   376     5.39    413     2.7  0.19   2.9   0.071   0.000   71.0    46   49.2   69.2   8.63  .0744    0.000   204    7    100.0   10 
 4/20/24  1:40p   54.3   54.8   54.3    81   48.6  14.0     S   2.33  22.0     S   48.4   54.0   48.1   51.9  30.125  0.00  0.00   281     4.03    362     2.1  0.15   2.6   0.074   0.000   71.0    46   49.2   69.2   8.63  .0744    0.000   204    7    100.0   10 
 4/20/24  1:50p   53.5   54.3   53.5    84   48.8  16.0     S   2.67  26.0     S   46.8   53.4   46.7   49.8  30.129  0.00  0.00   251     3.60    262     1.9  0.14   2.0   0.080   0.000   71.0    46   49.2   69.2   8.63  .0744    0.000   204    7    100.0   10 
 4/20/24  2:00p   53.8   53.8   53.5    83   48.8  16.0     S   2.67  23.0     S   47.2   53.6   47.0   49.6  30.130  0.00  0.00   221     3.17    236     1.7  0.12   1.8   0.078   0.000   71.0    46   49.2   69.2   8.63  .0744    0.008   203    7    100.0   10 
 4/20/24  2:10p   53.5   54.0   53.5    83   48.5  14.0     S   2.33  27.0   SSE   47.5   53.3   47.3   49.6  30.140  0.00  0.00   193     2.77    214     1.4  0.10   1.6   0.080   0.000   70.9    46   49.1   69.1   8.63  .0745    0.000   203    7    100.0   10 
 4/20/24  2:20p   52.5   53.5   52.5    86   48.4  13.0     S   2.17  25.0     S   46.8   52.5   46.8   48.1  30.141  0.00  0.00   140     2.01    160     1.1  0.08   1.2   0.087   0.000   70.9    46   49.1   69.1   8.63  .0745    0.000   203    7    100.0   10 
 4/20/24  2:30p   52.1   52.5   52.0    87   48.3  13.0     S   2.17  22.0   SSE   46.3   52.2   46.4   47.3  30.151  0.00  0.00   120     1.72    146     0.9  0.06   1.1   0.090   0.000   70.9    47   49.7   69.2   8.75  .0745    0.000   203    7    100.0   10 
 4/20/24  2:40p   51.4   52.1   51.4    89   48.3  15.0     S   2.50  27.0   SSE   44.8   51.6   45.0   45.5  30.157  0.00  0.00   104     1.49    132     0.8  0.06   1.0   0.094   0.000   70.9    47   49.7   69.2   8.75  .0745    0.000   203    7    100.0   10 
 4/20/24  2:50p   50.4   51.4   50.4    91   47.9  19.0     S   3.17  32.0   SSE   42.5   50.7   42.8   42.7  30.176  0.02  0.26    77     1.10    132     0.5  0.04   1.0   0.101   0.000   70.9    47   49.7   69.2   8.75  .0745    0.000   203    7    100.0   10 
 4/20/24  3:00p   49.7   50.4   49.7    91   47.2  13.0     W   2.17  20.0     W   43.5   50.0   43.8   44.2  30.188  0.01  0.11    96     1.38    113     0.8  0.06   0.9   0.106   0.000   70.8    47   49.6   69.0   8.75  .0746    0.004   203    7    100.0   10 
 4/20/24  3:10p   50.1   50.1   49.5    91   47.6   7.0     W   1.17  14.0     W   47.3   50.4   47.6   48.4  30.193  0.00  0.04   106     1.52    118     0.8  0.06   0.9   0.103   0.000   70.8    47   49.6   69.0   8.75  .0746    0.000   203    7    100.0   10 
 4/20/24  3:20p   50.2   50.3   50.0    90   47.4   3.0     W   0.50   7.0     W   49.9   50.5   50.2   51.4  30.196  0.00  0.00   116     1.66    127     0.9  0.06   1.0   0.103   0.000   70.8    47   49.6   69.0   8.75  .0746    0.000   203    7    100.0   10 
 4/20/24  3:30p   50.5   50.5   50.2    90   47.7   1.0   SSE   0.17   3.0   SSE   50.5   50.8   50.8   52.1  30.199  0.01  0.00   119     1.71    128     0.9  0.06   0.9   0.101   0.000   70.9    47   49.7   69.2   8.75  .0746    0.000   202    7    100.0   10 
 4/20/24  3:40p   51.1   51.1   50.5    91   48.6   0.0   SSE   0.00   3.0   SSE   51.1   51.3   51.3   53.5  30.199  0.00  0.00   143     2.05    179     1.0  0.07   1.2   0.097   0.000   70.9    48   50.2   69.3   8.87  .0746    0.000   201    7    100.0   10 
 4/20/24  3:50p   51.4   51.4   51.1    90   48.6   0.0    SE   0.00   2.0   SSE   51.4   51.6   51.6   54.8  30.208  0.00  0.00   177     2.54    221     1.1  0.08   1.3   0.094   0.000   70.9    48   50.2   69.3   8.87  .0746    0.000   202    7    100.0   10 
 4/20/24  4:00p   51.9   52.1   51.4    90   49.1   1.0   SSW   0.17   3.0    SW   51.9   52.1   52.1   59.4  30.216  0.00  0.00   328     4.70    522     1.8  0.13   2.5   0.091   0.000   71.0    48   50.3   69.4   8.87  .0746    0.003   201    7    100.0   10 
 4/20/24  4:10p   51.5   51.9   51.3    91   49.0   2.0   WSW   0.33   4.0   WSW   51.5   51.7   51.7   61.3  30.221  0.00  0.00   446     6.39    531     2.6  0.19   3.4   0.094   0.000   71.1    47   49.8   69.4   8.75  .0746    0.000   203    7    100.0   10 
 4/20/24  4:20p   51.7   51.9   51.5    91   49.2   2.0   WNW   0.33   4.0     W   51.7   51.9   51.9   60.8  30.227  0.00  0.00   388     5.56    543     2.1  0.15   2.4   0.092   0.000   71.2    47   49.9   69.6   8.75  .0746    0.000   204    7    100.0   10 
Email: AdamSPAM@StormwatchersRetreat.com (To send me email remove the word 'SPAM' from my email address.)